HSKO2: Arkansas River, Haskell, OK

Data processed at Fri Dec 08 2017 23:13


All information presented herein is the property of the government of the United States of America and may be revised or deleted at any time without prior notice.
Dissemination of this information without the expressed written consent of the Public Affairs Office, Tulsa District U.S. Army Corps of Engineers is strictly prohibited.
These data are gathered electronically and, as presented, have not undergone any form of quality control. These data are not guaranteed to be valid or correct.
Go to home page.
Go to station list.

Upstream stations:

Downstream station:
Previous Day
Next Day
Current Day
    
SHEF ID:       HSKO2     Arkansas River near Haskell, OK
STATION TYPE:  

               PRECIP     STAGE  STAGE(2)  RIV-FLOW  BAT-LOAD
                   in        ft        ft       cfs      volt
              Ccp-Rev   Ccp-Rev   Ccp-Rev   Ccp-Rev   Ccp-Rev
(US/Central)
12/06 00:00      0.00      2.09      2.10       616     12.49
12/06 01:00      0.00      2.00      2.10       557     12.41
12/06 02:00      0.00      2.00      2.10       557     12.41
12/06 03:00      0.00      2.04      2.09       341     12.33
12/06 04:00      0.00      2.18      2.09       417     12.33
12/06 05:00      0.00      1.98      2.09       309     12.25
12/06 06:00      0.00      2.00      2.08       321     12.25
12/06 07:00      0.00      1.99      2.08       315     12.25
12/06 08:00      0.00      2.00      2.08       321     12.17
12/06 09:00      0.00      2.14      2.09       394     13.37
12/06 10:00      0.00      2.56      2.13       688     13.53
12/06 11:00      0.00      3.35      3.31      1844     13.53
12/06 12:00      0.00      3.94      3.84      2844     13.53
12/06 13:00      0.00      4.21      4.10      3320     13.60
12/06 14:00      0.00      4.33      4.20      3537     13.53
12/06 15:00      0.00      4.39      4.27      3646     13.53
12/06 16:00      0.00      4.39      4.27      3646     13.53
12/06 17:00      0.00      4.39      4.26      3646     13.44
12/06 18:00      0.00      4.40      4.26      3664     13.21
12/06 19:00      0.00      4.43      4.28      3718     12.73
12/06 20:00      0.00      4.47      4.32      3791     12.65
12/06 21:00      0.00      4.52      4.37      3882     12.57
12/06 22:00      0.00      4.57      4.41      3974     12.57
12/06 23:00      0.00      4.57      4.42      3974     12.49